Pagina principale
METAR-TAF:

METAR-TAF

Aeroporti :

Büchel, Germania

latitudine: 50-10N, longitudine: 007-04E, altezza: 478 m

Osservazione

Il bollettino è stato emesso 39 minuti fa, alle 18:20 UTC
Vento 23 kt da sud-ovest con raffiche fino a 34 kt
Temperature 12°C
Umidità 58%
Pressione 1006 hPa
Visibilità 10 km o più

METAR: ETSB 161820Z AUTO 22023G34KT 9999 // ////// 12/04 Q1006 ///

Ora: 19:59 (18:59 UTC)


TAF: mancante

Osservazioni e previsioni meteorologiche di più di 4000 aeroporti (messaggi METAR e TAF).

Le stazioni disponibili sono rappresentate dai dischi gialli e rossi sulla carta.

Puntare il mouse per vedere il nome della stazione.

Clicca sopra per visualizzare le osservazioni e previsioni meteorologiche.

Per cambiare la mappa : fare clic sui pulsanti verdi con una croce nera per ingrandire, il pulsante verde con un trattino per diminuire, o sulla freccia verde per le mappe adiacenti.


METAR-TAF: